Time;durP1;ratioP1;P1;durP2;ratioP2;P2;SDS_P1;SDS_P2;PMS_P1;PMS_P2;Temp;Humidity;BMP_temperature;BMP_pressure;BME280_temperature;BME280_humidity;BME280_pressure;Samples;Min_cycle;Max_cycle;Signal;HPM_P1;HPM_P2
2023/02/08 00:02:25;;;;;;;6.50;4.70;;;-0.70;99.90;;;;;;5048122;28;20052;-70
2023/02/08 00:04:52;;;;;;;6.33;4.63;;;-0.70;99.90;;;;;;5048645;28;20368;-70
2023/02/08 00:07:18;;;;;;;8.03;4.83;;;-0.70;99.90;;;;;;5068066;28;20792;-70
2023/02/08 00:09:44;;;;;;;6.60;4.33;;;-0.80;99.90;;;;;;5008196;28;20574;-71
2023/02/08 00:12:11;;;;;;;6.83;5.07;;;-0.70;99.90;;;;;;5067046;28;20052;-70
2023/02/08 00:14:37;;;;;;;8.67;5.27;;;-0.80;99.90;;;;;;5068180;28;20039;-71
2023/02/08 00:17:03;;;;;;;6.73;4.63;;;-0.80;99.90;;;;;;5049133;28;20044;-70
2023/02/08 00:19:29;;;;;;;8.20;5.27;;;-0.80;99.90;;;;;;5028267;28;20430;-70
2023/02/08 00:21:56;;;;;;;8.33;5.53;;;-0.90;99.90;;;;;;5048215;28;20035;-70
2023/02/08 00:24:22;;;;;;;7.20;4.73;;;-0.90;99.90;;;;;;5049507;28;20033;-70
2023/02/08 00:26:48;;;;;;;6.80;4.63;;;-0.90;99.90;;;;;;5048462;28;20028;-69
2023/02/08 00:29:15;;;;;;;10.57;6.70;;;-0.90;99.90;;;;;;5016149;28;20048;-69
2023/02/08 00:31:41;;;;;;;8.07;5.50;;;-0.90;99.90;;;;;;5028736;28;20032;-70
2023/02/08 00:34:07;;;;;;;6.57;4.63;;;-0.90;99.90;;;;;;5049756;28;20044;-70
2023/02/08 00:36:33;;;;;;;6.53;4.40;;;-0.90;99.90;;;;;;5067367;28;20475;-69
2023/02/08 00:39:00;;;;;;;9.03;6.03;;;-0.90;99.90;;;;;;5046811;28;20036;-71
2023/02/08 00:41:27;;;;;;;5.67;4.10;;;-0.90;99.90;;;;;;5025342;28;20483;-69
2023/02/08 00:43:53;;;;;;;8.57;5.93;;;-0.90;99.90;;;;;;5066976;28;20040;-69
2023/02/08 00:46:19;;;;;;;9.60;7.37;;;-0.90;99.90;;;;;;5017345;28;20044;-70
2023/02/08 00:48:45;;;;;;;10.13;6.43;;;-0.90;99.90;;;;;;5031825;28;20044;-69
2023/02/08 00:51:14;;;;;;;10.07;6.47;;;-0.90;99.90;;;;;;5039908;28;20036;-69
2023/02/08 00:53:43;;;;;;;8.20;5.57;;;-0.90;99.90;;;;;;5049819;28;20037;-70
2023/02/08 00:56:11;;;;;;;7.80;5.63;;;-0.80;99.90;;;;;;5036676;28;20043;-70
2023/02/08 00:58:37;;;;;;;8.53;5.20;;;-0.90;99.90;;;;;;5047958;28;20053;-69
2023/02/08 01:01:05;;;;;;;7.83;5.67;;;-0.90;99.90;;;;;;5040268;28;20043;-69
2023/02/08 01:03:33;;;;;;;10.40;7.33;;;-0.90;99.90;;;;;;5051888;28;20434;-70
2023/02/08 01:06:01;;;;;;;13.17;8.37;;;-0.90;99.90;;;;;;5064511;28;20798;-69
2023/02/08 01:08:28;;;;;;;9.77;7.00;;;-0.90;99.90;;;;;;5068273;28;20431;-70
2023/02/08 01:11:10;;;;;;;9.10;6.57;;;-0.90;99.90;;;;;;5039238;28;20037;-70
2023/02/08 01:13:37;;;;;;;10.32;7.97;;;-0.90;99.90;;;;;;5048817;28;20031;-70
2023/02/08 01:16:17;;;;;;;9.37;6.50;;;-0.90;99.90;;;;;;5048642;28;20048;-69
2023/02/08 01:18:49;;;;;;;8.73;6.07;;;-0.90;99.90;;;;;;5014490;28;20491;-70
2023/02/08 01:21:19;;;;;;;8.40;5.70;;;-0.90;99.90;;;;;;5038681;28;20039;-70
2023/02/08 01:23:46;;;;;;;8.47;5.47;;;-0.90;99.90;;;;;;5048705;28;20036;-70
2023/02/08 01:26:13;;;;;;;8.63;5.73;;;-1.00;99.90;;;;;;5067500;28;20071;-69
2023/02/08 01:28:40;;;;;;;8.83;6.17;;;-1.00;99.90;;;;;;5034734;28;20032;-69
2023/02/08 01:31:11;;;;;;;8.37;5.87;;;-1.00;99.90;;;;;;5038938;28;20479;-69
2023/02/08 01:33:37;;;;;;;6.20;4.90;;;-1.00;99.90;;;;;;5048442;28;20040;-70
2023/02/08 01:36:04;;;;;;;8.03;5.17;;;-1.00;99.90;;;;;;5067699;28;20033;-69
2023/02/08 01:38:30;;;;;;;6.60;4.63;;;-1.10;99.90;;;;;;5065745;28;20048;-70
2023/02/08 01:40:59;;;;;;;10.03;6.80;;;-1.10;99.90;;;;;;5040790;28;20040;-70
2023/02/08 01:43:31;;;;;;;8.77;5.73;;;-1.10;99.90;;;;;;5034743;28;20055;-70
2023/02/08 01:45:57;;;;;;;7.47;5.10;;;-1.10;99.90;;;;;;5048390;28;20044;-70
2023/02/08 01:48:34;;;;;;;7.97;5.00;;;-1.20;99.90;;;;;;5030954;28;20048;-69
2023/02/08 01:51:09;;;;;;;8.07;5.23;;;-1.20;99.90;;;;;;5022272;28;20039;-70
2023/02/08 01:53:37;;;;;;;8.47;5.43;;;-1.20;99.90;;;;;;5048348;28;20032;-70
2023/02/08 01:56:07;;;;;;;8.30;5.53;;;-1.20;99.90;;;;;;5034397;28;20039;-69
2023/02/08 01:58:38;;;;;;;7.13;5.30;;;-1.20;99.90;;;;;;5032214;28;20041;-71
2023/02/08 02:01:05;;;;;;;7.33;4.73;;;-1.20;99.90;;;;;;5020014;28;20048;-70
2023/02/08 02:03:33;;;;;;;8.90;6.00;;;-1.20;99.90;;;;;;5015911;28;20036;-69
2023/02/08 02:06:09;;;;;;;7.90;5.33;;;-1.20;99.90;;;;;;5064453;28;20024;-70
2023/02/08 02:08:41;;;;;;;7.53;5.00;;;-1.20;99.90;;;;;;5032013;28;20056;-70
2023/02/08 02:11:07;;;;;;;8.67;5.97;;;-1.30;99.90;;;;;;5036798;28;20033;-70
2023/02/08 02:13:36;;;;;;;9.00;5.87;;;-1.30;99.90;;;;;;5064374;28;20043;-70
2023/02/08 02:16:03;;;;;;;8.20;5.47;;;-1.30;99.90;;;;;;5030998;28;20048;-69
2023/02/08 02:18:32;;;;;;;7.57;5.47;;;-1.30;99.90;;;;;;5046783;28;20036;-70
2023/02/08 02:21:13;;;;;;;7.70;5.37;;;-1.30;99.90;;;;;;5041003;28;20048;-70
2023/02/08 02:24:10;;;;;;;11.57;6.33;;;-1.30;99.90;;;;;;5031222;28;20048;-69
2023/02/08 02:26:52;;;;;;;6.90;4.83;;;-1.30;99.90;;;;;;5047537;28;20044;-69
2023/02/08 02:29:44;;;;;;;8.43;5.68;;;-1.30;99.90;;;;;;5041338;28;20080;-70
2023/02/08 02:32:29;;;;;;;11.50;5.70;;;-1.30;99.90;;;;;;5045441;28;20040;-69
2023/02/08 02:35:05;;;;;;;6.10;4.43;;;-1.30;99.90;;;;;;5032613;28;20048;-69
2023/02/08 02:38:09;;;;;;;7.90;5.07;;;-1.40;99.90;;;;;;5049283;28;20495;-69
2023/02/08 02:40:56;;;;;;;8.47;5.70;;;-1.40;99.90;;;;;;5039361;28;20040;-70
2023/02/08 02:43:41;;;;;;;7.43;5.30;;;-1.40;99.90;;;;;;5047491;28;20044;-69
2023/02/08 02:46:30;;;;;;;7.30;4.93;;;-1.40;99.90;;;;;;5064783;28;20044;-70
2023/02/08 02:49:04;;;;;;;14.00;6.73;;;-1.40;99.90;;;;;;5017771;28;20060;-71
2023/02/08 02:51:31;;;;;;;8.07;5.47;;;-1.40;99.90;;;;;;5025499;28;20025;-68
2023/02/08 02:54:10;;;;;;;9.53;6.37;;;-1.30;99.90;;;;;;5016045;28;20045;-70
2023/02/08 02:56:46;;;;;;;12.50;6.97;;;-1.30;99.90;;;;;;5047170;28;20048;-69
2023/02/08 02:59:14;;;;;;;9.87;5.80;;;-1.30;99.90;;;;;;5025323;28;20051;-70
2023/02/08 03:01:44;;;;;;;9.37;6.57;;;-1.30;99.90;;;;;;5028652;28;20028;-69
2023/02/08 03:04:33;;;;;;;9.63;6.07;;;-1.30;99.90;;;;;;5030934;28;20032;-69
2023/02/08 03:07:35;;;;;;;8.27;5.30;;;-1.30;99.90;;;;;;5005535;28;20037;-69
2023/02/08 03:10:08;;;;;;;8.38;5.32;;;-1.30;99.90;;;;;;5036992;28;20040;-69
2023/02/08 03:12:49;;;;;;;8.73;5.18;;;-1.30;99.90;;;;;;5047294;28;20044;-70
2023/02/08 03:15:18;;;;;;;8.43;4.60;;;-1.40;99.90;;;;;;5030328;28;20080;-69
2023/02/08 03:18:18;;;;;;;9.30;5.83;;;-1.40;99.90;;;;;;5047019;28;20040;-69
2023/02/08 03:20:52;;;;;;;8.93;5.73;;;-1.40;99.90;;;;;;5042701;28;20044;-69
2023/02/08 03:23:28;;;;;;;7.47;4.83;;;-1.40;99.90;;;;;;5053819;28;20028;-69
2023/02/08 03:26:03;;;;;;;7.73;5.10;;;-1.40;99.90;;;;;;5050747;28;20048;-69
2023/02/08 03:28:51;;;;;;;9.03;5.63;;;-1.40;99.90;;;;;;5068076;28;20036;-70
2023/02/08 03:31:58;;;;;;;6.90;5.00;;;-1.40;99.90;;;;;;5059759;28;20405;-69
2023/02/08 03:34:52;;;;;;;10.43;5.47;;;-1.50;99.90;;;;;;5051872;28;20036;-69
2023/02/08 03:38:01;;;;;;;7.07;4.00;;;-1.50;99.90;;;;;;5067818;28;20036;-69
2023/02/08 03:40:36;;;;;;;7.43;4.63;;;-1.50;99.90;;;;;;5009992;28;20469;-69
2023/02/08 03:43:27;;;;;;;7.70;4.87;;;-1.50;99.90;;;;;;5050413;28;20044;-70
2023/02/08 03:46:02;;;;;;;9.87;5.20;;;-1.50;99.90;;;;;;5033264;28;20055;-68
2023/02/08 03:48:30;;;;;;;7.87;5.33;;;-1.50;99.90;;;;;;5018446;28;20036;-69
2023/02/08 03:50:59;;;;;;;9.03;5.77;;;-1.50;99.90;;;;;;5042254;28;20043;-70
2023/02/08 03:53:27;;;;;;;7.50;5.23;;;-1.50;99.90;;;;;;5050157;28;20048;-69
2023/02/08 03:56:01;;;;;;;9.37;5.53;;;-1.50;99.90;;;;;;5050185;28;20040;-69
2023/02/08 03:58:37;;;;;;;8.50;5.77;;;-1.50;99.90;;;;;;5032875;28;20037;-69
2023/02/08 04:01:12;;;;;;;9.53;5.90;;;-1.50;99.90;;;;;;5040474;28;20049;-70
2023/02/08 04:03:40;;;;;;;8.80;5.50;;;-1.50;99.90;;;;;;5034174;28;20487;-71
2023/02/08 04:06:06;;;;;;;6.63;4.33;;;-1.50;99.90;;;;;;5036182;28;20475;-70
2023/02/08 04:08:33;;;;;;;8.23;5.13;;;-1.50;99.90;;;;;;5016324;28;20056;-71
2023/02/08 04:10:59;;;;;;;6.60;3.93;;;-1.50;99.90;;;;;;5041853;28;20035;-70
2023/02/08 04:13:25;;;;;;;8.83;5.30;;;-1.60;99.90;;;;;;5049800;28;20051;-70
2023/02/08 04:15:51;;;;;;;6.57;4.43;;;-1.60;99.90;;;;;;5032604;28;20056;-70
2023/02/08 04:18:18;;;;;;;8.20;5.10;;;-1.60;99.90;;;;;;5017982;28;20059;-71
2023/02/08 04:20:44;;;;;;;8.80;4.10;;;-1.60;99.90;;;;;;5008747;28;20435;-70
2023/02/08 04:23:10;;;;;;;7.77;4.97;;;-1.70;99.90;;;;;;5052221;28;20036;-70
2023/02/08 04:25:37;;;;;;;7.93;4.70;;;-1.70;99.90;;;;;;5033788;28;20052;-70
2023/02/08 04:28:03;;;;;;;6.60;4.40;;;-1.60;99.90;;;;;;5018587;28;20799;-70
2023/02/08 04:30:29;;;;;;;6.67;4.67;;;-1.70;99.90;;;;;;5058613;28;20758;-70
2023/02/08 04:32:57;;;;;;;11.17;5.57;;;-1.70;99.90;;;;;;5048906;28;20045;-71
2023/02/08 04:35:23;;;;;;;6.23;4.33;;;-1.70;99.90;;;;;;5067808;28;20380;-70
2023/02/08 04:37:49;;;;;;;8.47;4.70;;;-1.70;99.90;;;;;;5048744;28;20036;-70
2023/02/08 04:40:16;;;;;;;9.07;5.10;;;-1.70;99.90;;;;;;5025951;28;20036;-69
2023/02/08 04:42:42;;;;;;;6.73;4.33;;;-1.70;99.90;;;;;;5049775;28;20036;-70
2023/02/08 04:45:09;;;;;;;6.60;4.80;;;-1.70;99.90;;;;;;5019536;28;20495;-70
2023/02/08 04:47:35;;;;;;;8.40;6.10;;;-1.70;99.90;;;;;;5050389;28;20037;-70
2023/02/08 04:50:02;;;;;;;9.20;5.30;;;-1.70;99.90;;;;;;5039532;28;20044;-69
2023/02/08 04:52:28;;;;;;;7.47;5.37;;;-1.70;99.90;;;;;;5015839;28;20260;-71
2023/02/08 04:54:54;;;;;;;7.60;5.23;;;-1.70;99.90;;;;;;5067598;28;20494;-70
2023/02/08 04:57:21;;;;;;;7.97;5.80;;;-1.60;99.90;;;;;;5049348;28;20041;-71
2023/02/08 04:59:47;;;;;;;8.27;5.30;;;-1.70;99.90;;;;;;5008034;28;20415;-70
2023/02/08 05:02:13;;;;;;;9.87;6.00;;;-1.60;99.90;;;;;;5037004;28;20032;-71
2023/02/08 05:04:39;;;;;;;10.97;7.20;;;-1.60;99.90;;;;;;5049192;28;20041;-70
2023/02/08 05:07:06;;;;;;;9.17;6.20;;;-1.60;99.90;;;;;;5035446;28;20032;-70
2023/02/08 05:09:32;;;;;;;6.70;4.50;;;-1.60;99.90;;;;;;5040283;28;20045;-71
2023/02/08 05:11:58;;;;;;;8.27;4.90;;;-1.60;99.90;;;;;;5049197;28;20036;-69
2023/02/08 05:14:25;;;;;;;7.87;5.07;;;-1.60;99.90;;;;;;5048920;28;20044;-70
2023/02/08 05:16:51;;;;;;;9.67;5.50;;;-1.60;99.90;;;;;;5048887;28;20506;-71
2023/02/08 05:19:17;;;;;;;8.67;5.47;;;-1.70;99.90;;;;;;5042685;28;20040;-70
2023/02/08 05:21:44;;;;;;;8.97;5.37;;;-1.70;99.90;;;;;;5014617;28;20029;-70
2023/02/08 05:24:11;;;;;;;12.83;7.30;;;-1.70;99.90;;;;;;5049998;28;20044;-71
2023/02/08 05:26:38;;;;;;;11.93;7.97;;;-1.70;99.90;;;;;;5035271;28;20047;-70
2023/02/08 05:29:05;;;;;;;9.73;6.63;;;-1.70;99.90;;;;;;5046216;28;20037;-71
2023/02/08 05:31:31;;;;;;;13.30;7.33;;;-1.70;99.90;;;;;;5027500;28;20385;-70
2023/02/08 05:33:57;;;;;;;10.83;6.63;;;-1.70;99.90;;;;;;5050025;28;20688;-70
2023/02/08 05:36:24;;;;;;;8.47;5.80;;;-1.70;99.90;;;;;;5030657;28;20041;-70
2023/02/08 05:38:52;;;;;;;16.23;9.33;;;-1.70;99.90;;;;;;5048979;28;20496;-71
2023/02/08 05:41:18;;;;;;;14.73;10.17;;;-1.70;99.90;;;;;;5039395;28;20036;-70
2023/02/08 05:43:45;;;;;;;13.37;8.30;;;-1.70;99.90;;;;;;5047375;28;20043;-70
2023/02/08 05:46:11;;;;;;;14.30;8.23;;;-1.70;99.90;;;;;;5029445;28;20640;-70
2023/02/08 05:48:38;;;;;;;14.73;9.30;;;-1.60;99.90;;;;;;5047478;28;20407;-70
2023/02/08 05:51:04;;;;;;;18.07;10.13;;;-1.70;99.90;;;;;;5023662;28;20047;-70
2023/02/08 05:53:30;;;;;;;16.67;10.57;;;-1.70;99.90;;;;;;5048327;28;20043;-70
2023/02/08 05:55:57;;;;;;;18.63;9.43;;;-1.70;99.90;;;;;;5047988;28;20032;-70
2023/02/08 05:58:24;;;;;;;17.60;10.40;;;-1.70;99.90;;;;;;5048737;28;20036;-71
2023/02/08 06:00:50;;;;;;;14.37;8.73;;;-1.70;99.90;;;;;;5022857;28;20024;-70
2023/02/08 06:03:16;;;;;;;16.10;10.07;;;-1.70;99.90;;;;;;5048181;28;20035;-71
2023/02/08 06:05:43;;;;;;;17.50;10.20;;;-1.70;99.90;;;;;;5018626;28;20043;-70
2023/02/08 06:08:09;;;;;;;13.33;8.03;;;-1.80;99.90;;;;;;5033968;28;20040;-70
2023/02/08 06:10:36;;;;;;;18.83;12.20;;;-1.80;99.90;;;;;;5005934;28;20036;-70
2023/02/08 06:13:03;;;;;;;15.90;10.77;;;-1.80;99.90;;;;;;5017977;28;20491;-70
2023/02/08 06:15:29;;;;;;;13.53;9.13;;;-1.80;99.90;;;;;;5067654;28;20384;-70
2023/02/08 06:17:56;;;;;;;12.70;8.43;;;-1.80;99.90;;;;;;5068835;28;20029;-71
2023/02/08 06:20:22;;;;;;;14.33;8.43;;;-1.80;99.90;;;;;;5037921;28;20483;-70
2023/02/08 06:22:48;;;;;;;14.23;9.93;;;-1.60;99.90;;;;;;5047732;28;20040;-71
2023/02/08 06:25:15;;;;;;;14.33;9.93;;;-1.40;99.90;;;;;;5047375;28;20061;-70
2023/02/08 06:27:41;;;;;;;12.00;8.03;;;-1.30;99.90;;;;;;5031180;28;20170;-70
2023/02/08 06:30:08;;;;;;;12.33;7.20;;;-1.30;99.90;;;;;;5021782;28;20044;-70
2023/02/08 06:32:35;;;;;;;15.43;8.20;;;-1.30;99.90;;;;;;5032942;28;20040;-71
2023/02/08 06:35:01;;;;;;;10.73;6.47;;;-1.40;99.90;;;;;;5031107;28;20043;-70
2023/02/08 06:37:28;;;;;;;11.00;7.00;;;-1.50;99.90;;;;;;5066592;28;20029;-70
2023/02/08 06:39:54;;;;;;;11.97;7.23;;;-1.60;99.90;;;;;;5037851;28;20048;-70
2023/02/08 06:42:20;;;;;;;13.73;8.37;;;-1.70;99.90;;;;;;5034264;28;20075;-71
2023/02/08 06:44:48;;;;;;;12.90;8.57;;;-1.70;99.90;;;;;;5030441;28;20408;-70
2023/02/08 06:47:15;;;;;;;13.90;8.83;;;-1.80;99.90;;;;;;5031389;28;20037;-70
2023/02/08 06:49:41;;;;;;;14.10;8.67;;;-1.80;99.90;;;;;;5037920;28;20040;-70
2023/02/08 06:52:08;;;;;;;12.67;8.23;;;-1.80;99.90;;;;;;5046577;28;20037;-69
2023/02/08 06:54:34;;;;;;;18.77;10.77;;;-1.80;99.90;;;;;;5029398;28;20032;-70
2023/02/08 06:57:00;;;;;;;15.00;9.57;;;-1.80;99.90;;;;;;5041943;28;20052;-71
2023/02/08 06:59:26;;;;;;;12.63;8.27;;;-1.80;99.90;;;;;;5056746;28;21805;-71
2023/02/08 07:01:53;;;;;;;15.27;9.03;;;-1.80;99.90;;;;;;5027626;28;20036;-71
2023/02/08 07:04:19;;;;;;;15.23;9.67;;;-1.80;99.90;;;;;;5045120;28;20037;-71
2023/02/08 07:06:48;;;;;;;15.83;9.70;;;-1.80;99.90;;;;;;5029312;28;20052;-73
2023/02/08 07:09:16;;;;;;;11.80;7.67;;;-1.80;99.90;;;;;;5061195;28;20040;-73
2023/02/08 07:11:42;;;;;;;11.63;7.47;;;-1.80;99.90;;;;;;5041377;28;20498;-72
2023/02/08 07:14:13;;;;;;;14.17;8.30;;;-1.80;99.90;;;;;;5043791;28;20032;-71
2023/02/08 07:16:40;;;;;;;16.27;9.07;;;-1.80;99.90;;;;;;5046888;28;20047;-70
2023/02/08 07:19:06;;;;;;;14.10;8.87;;;-1.70;99.90;;;;;;5031553;28;20029;-72
2023/02/08 07:21:32;;;;;;;17.07;11.67;;;-1.70;99.90;;;;;;5043030;28;20446;-71
2023/02/08 07:23:59;;;;;;;16.33;10.53;;;-1.70;99.90;;;;;;5034918;28;20036;-70
2023/02/08 07:26:25;;;;;;;17.90;12.00;;;-1.60;99.90;;;;;;5049595;28;20606;-71
2023/02/08 07:28:51;;;;;;;20.13;12.47;;;-1.60;99.90;;;;;;5013618;28;20040;-71
2023/02/08 07:31:18;;;;;;;19.20;11.00;;;-1.50;99.90;;;;;;5007138;28;20040;-71
2023/02/08 07:33:44;;;;;;;18.10;11.43;;;-1.50;99.90;;;;;;5060552;28;20051;-71
2023/02/08 07:36:11;;;;;;;19.37;11.07;;;-1.40;99.90;;;;;;5045974;28;20072;-70
2023/02/08 07:38:37;;;;;;;19.57;11.70;;;-1.40;99.90;;;;;;5062579;28;20036;-70
2023/02/08 07:41:07;;;;;;;18.73;12.23;;;-1.30;99.90;;;;;;5057226;28;20036;-71
2023/02/08 07:43:35;;;;;;;15.97;9.90;;;-1.20;99.90;;;;;;5064646;28;20059;-71
2023/02/08 07:46:08;;;;;;;13.77;9.77;;;-1.10;99.90;;;;;;5026897;28;20115;-71
2023/02/08 07:48:34;;;;;;;17.67;10.67;;;-1.10;99.90;;;;;;5042494;28;20048;-70
2023/02/08 07:51:01;;;;;;;16.93;9.07;;;-1.00;99.90;;;;;;5035518;28;20039;-70
2023/02/08 07:53:28;;;;;;;17.70;10.97;;;-0.90;99.90;;;;;;5037326;28;20058;-70
2023/02/08 07:55:55;;;;;;;14.47;9.70;;;-0.80;99.90;;;;;;5067848;28;20040;-70
2023/02/08 07:58:21;;;;;;;15.80;10.80;;;-0.80;99.90;;;;;;5047734;28;20024;-71
2023/02/08 08:00:48;;;;;;;15.37;10.23;;;-0.70;99.90;;;;;;5039971;28;20036;-71
2023/02/08 08:03:14;;;;;;;16.50;11.13;;;-0.60;99.90;;;;;;5037563;28;20032;-70
2023/02/08 08:05:41;;;;;;;14.83;9.83;;;-0.60;99.90;;;;;;5066443;28;20033;-71
2023/02/08 08:08:09;;;;;;;15.57;9.57;;;-0.50;99.90;;;;;;5050266;28;20028;-70
2023/02/08 08:10:35;;;;;;;16.30;10.50;;;-0.40;99.90;;;;;;5055970;28;20036;-71
2023/02/08 08:13:02;;;;;;;18.73;10.77;;;-0.40;99.90;;;;;;5031615;28;20024;-71
2023/02/08 08:15:29;;;;;;;18.30;11.80;;;-0.30;99.90;;;;;;5048571;28;20039;-70
2023/02/08 08:17:55;;;;;;;17.30;12.03;;;-0.20;99.90;;;;;;5050131;28;20025;-70
2023/02/08 08:20:22;;;;;;;13.43;9.73;;;-0.10;99.90;;;;;;5022791;28;20052;-72
2023/02/08 08:22:48;;;;;;;22.47;14.53;;;0.00;99.90;;;;;;5048538;28;20509;-71
2023/02/08 08:25:14;;;;;;;23.97;16.00;;;0.10;99.90;;;;;;5050215;28;20056;-68
2023/02/08 08:27:41;;;;;;;21.63;15.00;;;0.10;99.90;;;;;;5051709;28;20036;-70
2023/02/08 08:30:13;;;;;;;20.23;12.37;;;0.20;99.90;;;;;;5040766;28;20048;-70
2023/02/08 08:32:40;;;;;;;19.60;12.70;;;0.40;99.90;;;;;;5033300;28;20039;-71
2023/02/08 08:35:06;;;;;;;16.83;11.47;;;0.40;99.90;;;;;;5069481;28;20036;-70
2023/02/08 08:37:34;;;;;;;17.30;10.87;;;0.50;99.90;;;;;;5070027;28;20039;-72
2023/02/08 08:40:00;;;;;;;17.23;10.73;;;0.50;99.90;;;;;;5062797;28;20047;-71
2023/02/08 08:42:27;;;;;;;14.67;9.27;;;0.60;99.90;;;;;;5067804;28;20036;-72
2023/02/08 08:44:53;;;;;;;16.40;10.40;;;0.60;99.90;;;;;;5069608;28;20067;-70
2023/02/08 08:47:19;;;;;;;15.90;10.83;;;0.70;99.90;;;;;;5067797;28;20029;-71
2023/02/08 08:49:46;;;;;;;16.50;10.87;;;0.70;99.90;;;;;;5025266;28;20040;-71
2023/02/08 08:52:12;;;;;;;17.90;10.03;;;0.80;99.90;;;;;;5050174;28;20058;-72
2023/02/08 08:54:39;;;;;;;18.90;11.20;;;0.90;99.90;;;;;;5044220;28;20140;-71
2023/02/08 08:57:05;;;;;;;17.43;11.53;;;0.90;99.90;;;;;;5047781;28;20036;-72
2023/02/08 08:59:32;;;;;;;16.07;9.80;;;0.90;99.90;;;;;;5056050;28;20048;-71
2023/02/08 09:01:58;;;;;;;16.03;9.57;;;1.00;99.90;;;;;;5042598;28;20029;-70
2023/02/08 09:04:25;;;;;;;21.90;11.53;;;1.10;99.90;;;;;;5066905;28;20055;-71
2023/02/08 09:06:52;;;;;;;17.13;10.50;;;1.10;99.90;;;;;;5017351;28;20481;-70
2023/02/08 09:09:19;;;;;;;15.60;10.57;;;1.20;99.90;;;;;;5060212;28;20040;-71
2023/02/08 09:11:46;;;;;;;15.33;9.97;;;1.30;99.90;;;;;;5024700;28;20040;-68
2023/02/08 09:14:12;;;;;;;18.57;11.10;;;1.40;99.90;;;;;;5047598;28;20051;-69
2023/02/08 09:16:46;;;;;;;18.20;11.30;;;1.40;99.90;;;;;;5047706;28;20037;-68
2023/02/08 09:19:13;;;;;;;14.53;9.70;;;1.50;99.90;;;;;;5041425;28;20812;-70
2023/02/08 09:21:40;;;;;;;15.10;9.63;;;1.60;99.90;;;;;;5027064;28;20043;-68
2023/02/08 09:24:06;;;;;;;13.60;9.70;;;1.60;99.90;;;;;;5045961;28;20036;-69
2023/02/08 09:26:32;;;;;;;14.93;9.27;;;1.70;99.90;;;;;;5044014;28;20056;-68
2023/02/08 09:28:59;;;;;;;15.03;9.67;;;1.80;99.90;;;;;;5062769;28;20063;-71
2023/02/08 09:31:29;;;;;;;20.13;11.77;;;1.90;99.90;;;;;;5019865;28;20044;-71
2023/02/08 09:33:57;;;;;;;14.57;10.33;;;2.00;99.90;;;;;;5048326;28;20122;-71
2023/02/08 09:36:30;;;;;;;13.77;9.37;;;2.00;99.90;;;;;;5044482;28;20364;-68
2023/02/08 09:39:00;;;;;;;11.87;8.20;;;2.10;99.90;;;;;;5032086;28;20063;-70
2023/02/08 09:41:51;;;;;;;14.83;9.03;;;2.20;99.90;;;;;;5042645;28;20024;-68
2023/02/08 09:44:25;;;;;;;12.87;8.20;;;2.30;99.90;;;;;;5027666;28;20059;-68
2023/02/08 09:47:02;;;;;;;13.43;8.97;;;2.30;99.90;;;;;;5065269;28;20024;-69
2023/02/08 09:49:39;;;;;;;13.60;7.80;;;2.40;99.90;;;;;;5039361;28;20447;-68
2023/02/08 09:52:22;;;;;;;12.93;8.77;;;2.50;99.90;;;;;;5028483;28;20032;-69
2023/02/08 09:54:53;;;;;;;12.23;8.10;;;2.50;99.90;;;;;;5031488;28;20494;-69
2023/02/08 09:57:26;;;;;;;12.83;8.60;;;2.60;99.90;;;;;;5012436;28;20049;-69
2023/02/08 09:59:56;;;;;;;11.35;7.40;;;2.70;99.90;;;;;;5060769;28;20718;-69
2023/02/08 10:02:32;;;;;;;15.30;8.57;;;2.80;99.90;;;;;;5048774;28;20478;-69
2023/02/08 10:05:12;;;;;;;11.77;8.43;;;2.90;99.90;;;;;;5046672;28;20028;-71
2023/02/08 10:07:40;;;;;;;13.63;8.30;;;3.00;99.90;;;;;;5046863;28;20032;-70
2023/02/08 10:10:20;;;;;;;12.77;8.27;;;3.10;99.90;;;;;;5040494;28;20886;-70
2023/02/08 10:13:02;;;;;;;11.17;7.67;;;3.30;99.90;;;;;;5047616;28;20031;-70
2023/02/08 10:15:41;;;;;;;13.43;8.30;;;3.60;99.90;;;;;;5049920;28;20032;-69
2023/02/08 10:18:33;;;;;;;11.00;7.47;;;4.00;99.90;;;;;;5050529;28;20044;-69
2023/02/08 10:21:31;;;;;;;14.05;8.38;;;4.40;99.90;;;;;;5057970;28;20491;-69
2023/02/08 10:24:26;;;;;;;11.63;8.05;;;5.00;99.90;;;;;;5045014;28;20039;-70
2023/02/08 10:27:13;;;;;;;14.10;8.50;;;5.40;99.90;;;;;;5061895;28;20055;-69
2023/02/08 10:29:45;;;;;;;11.00;6.75;;;5.70;99.90;;;;;;5018646;28;20024;-70
2023/02/08 10:32:50;;;;;;;13.30;7.55;;;6.00;99.90;;;;;;5062946;28;20039;-69
2023/02/08 10:35:24;;;;;;;10.40;7.03;;;6.30;99.90;;;;;;5064264;28;20131;-71
2023/02/08 10:37:51;;;;;;;10.00;6.22;;;6.60;99.90;;;;;;5063424;28;20037;-69
2023/02/08 10:40:31;;;;;;;9.35;6.05;;;6.90;99.90;;;;;;5053497;28;20033;-69
2023/02/08 10:43:22;;;;;;;9.77;6.38;;;7.20;99.90;;;;;;5063842;28;20460;-68
2023/02/08 10:46:10;;;;;;;10.05;6.18;;;7.50;99.90;;;;;;5014849;28;20036;-69
2023/02/08 10:48:57;;;;;;;11.40;6.03;;;7.80;99.90;;;;;;5062697;28;21268;-70
2023/02/08 10:51:24;;;;;;;9.10;5.63;;;8.10;99.90;;;;;;5039837;28;20052;-69
2023/02/08 10:53:50;;;;;;;10.05;6.45;;;8.40;99.90;;;;;;5024968;28;20051;-70
2023/02/08 10:56:33;;;;;;;10.00;6.30;;;8.60;99.90;;;;;;5048455;28;20036;-71
2023/02/08 10:59:05;;;;;;;7.65;5.05;;;8.90;99.90;;;;;;5020575;28;20398;-69
2023/02/08 11:01:32;;;;;;;6.85;4.90;;;9.10;99.90;;;;;;5026896;28;20040;-69
2023/02/08 11:04:10;;;;;;;8.20;5.43;;;9.30;99.90;;;;;;5021716;28;20029;-69
2023/02/08 11:06:38;;;;;;;7.88;4.97;;;9.60;99.90;;;;;;5045447;28;20025;-68
2023/02/08 11:09:05;;;;;;;7.72;5.22;;;9.80;99.90;;;;;;5059152;28;20032;-70
2023/02/08 11:11:38;;;;;;;9.07;5.70;;;9.90;99.90;;;;;;5025470;28;20032;-69
2023/02/08 11:14:13;;;;;;;11.93;6.22;;;9.50;99.90;;;;;;5047303;28;20036;-69
2023/02/08 11:16:40;;;;;;;7.30;5.28;;;8.80;99.90;;;;;;5046746;28;20035;-70
2023/02/08 11:19:45;;;;;;;9.50;6.07;;;8.10;99.90;;;;;;5024525;28;20048;-69
2023/02/08 11:22:16;;;;;;;9.85;5.90;;;7.50;99.90;;;;;;5061800;28;20016;-69
2023/02/08 11:24:49;;;;;;;10.55;6.50;;;7.00;99.90;;;;;;5063622;28;20047;-68
2023/02/08 11:27:18;;;;;;;7.38;4.93;;;6.60;99.90;;;;;;5064950;28;20554;-69
2023/02/08 11:29:44;;;;;;;7.32;5.15;;;6.30;99.90;;;;;;5035123;28;20037;-69
2023/02/08 11:32:19;;;;;;;8.27;5.35;;;6.10;99.90;;;;;;5044783;28;20025;-69
2023/02/08 11:34:46;;;;;;;7.70;4.47;;;6.00;99.90;;;;;;5046838;28;20020;-68
2023/02/08 11:37:27;;;;;;;6.82;4.47;;;5.90;99.90;;;;;;5063644;28;20514;-70
2023/02/08 11:39:58;;;;;;;6.88;4.45;;;5.80;99.90;;;;;;5034328;28;20072;-69
2023/02/08 11:42:30;;;;;;;9.88;4.75;;;5.70;99.90;;;;;;5067472;28;20047;-69
2023/02/08 11:44:58;;;;;;;9.15;5.97;;;5.60;99.90;;;;;;5049980;28;20036;-71
2023/02/08 11:47:35;;;;;;;7.43;4.68;;;5.50;99.90;;;;;;5067252;28;20040;-69
2023/02/08 11:50:05;;;;;;;8.07;4.97;;;5.50;99.90;;;;;;5039699;28;20111;-69
2023/02/08 11:52:38;;;;;;;7.75;5.03;;;5.40;99.90;;;;;;5033541;28;20032;-69
2023/02/08 11:55:16;;;;;;;6.22;4.57;;;5.40;99.90;;;;;;5051951;28;20597;-69
2023/02/08 11:58:04;;;;;;;8.90;5.05;;;5.40;99.90;;;;;;5066705;28;20028;-69
2023/02/08 12:00:34;;;;;;;10.40;5.70;;;5.40;99.90;;;;;;5041779;28;20063;-69
2023/02/08 12:03:05;;;;;;;8.20;5.32;;;5.40;99.90;;;;;;5068859;28;20043;-69
2023/02/08 12:05:50;;;;;;;7.88;4.78;;;5.40;99.90;;;;;;5070680;28;20035;-69
2023/02/08 12:08:25;;;;;;;5.97;3.72;;;5.40;99.90;;;;;;5051883;28;20680;-70
2023/02/08 12:11:11;;;;;;;8.13;4.40;;;5.40;99.90;;;;;;5023760;28;20017;-70
2023/02/08 12:13:45;;;;;;;6.55;3.95;;;5.40;99.90;;;;;;5051024;28;20032;-70
2023/02/08 12:16:56;;;;;;;6.88;4.22;;;5.40;99.90;;;;;;5049627;28;20024;-71
2023/02/08 12:19:32;;;;;;;7.10;4.57;;;5.40;99.90;;;;;;5041855;28;20047;-70
2023/02/08 12:22:28;;;;;;;7.40;4.35;;;5.40;99.90;;;;;;5041702;28;20032;-70
2023/02/08 12:25:40;;;;;;;7.97;5.40;;;5.50;99.90;;;;;;5026026;28;20052;-69
2023/02/08 12:28:24;;;;;;;5.03;3.72;;;5.70;99.90;;;;;;5011084;28;20041;-70
2023/02/08 12:31:08;;;;;;;6.75;3.67;;;6.20;99.90;;;;;;5036558;28;20032;-70
2023/02/08 12:33:59;;;;;;;5.60;3.58;;;6.30;99.90;;;;;;5033421;28;20049;-70
2023/02/08 12:36:34;;;;;;;5.85;3.30;;;6.20;99.90;;;;;;5031162;28;20029;-70
2023/02/08 12:42:37;;;;;;;7.22;3.92;;;6.00;99.90;;;;;;5044869;28;20406;-70
2023/02/08 12:45:21;;;;;;;6.65;4.45;;;5.90;99.90;;;;;;5026811;28;20044;-69
2023/02/08 12:48:20;;;;;;;10.55;4.32;;;5.80;99.90;;;;;;5065190;28;20371;-69
2023/02/08 12:51:02;;;;;;;4.88;3.72;;;5.70;99.90;;;;;;5039563;28;20043;-70
2023/02/08 12:53:42;;;;;;;5.30;3.85;;;5.70;99.90;;;;;;5033765;28;20471;-69
2023/02/08 12:56:19;;;;;;;8.35;4.13;;;5.60;99.90;;;;;;5048356;28;20032;-70
2023/02/08 12:58:56;;;;;;;6.78;4.20;;;5.60;99.90;;;;;;5068719;28;20040;-71
2023/02/08 13:01:29;;;;;;;6.05;3.78;;;5.70;99.90;;;;;;5059762;28;20029;-69
2023/02/08 13:04:14;;;;;;;8.55;3.75;;;5.70;99.90;;;;;;5066897;28;20020;-69
2023/02/08 13:06:48;;;;;;;4.95;3.72;;;5.70;99.90;;;;;;5048333;28;20025;-70
2023/02/08 13:09:33;;;;;;;4.65;2.78;;;5.70;99.90;;;;;;5027688;28;20612;-70
2023/02/08 13:12:13;;;;;;;5.03;3.10;;;5.70;99.90;;;;;;5030258;28;20025;-70